Time;durP1;ratioP1;P1;durP2;ratioP2;P2;SDS_P1;SDS_P2;PMS_P1;PMS_P2;Temp;Humidity;BMP_temperature;BMP_pressure;BME280_temperature;BME280_humidity;BME280_pressure;Samples;Min_cycle;Max_cycle;Signal;HPM_P1;HPM_P2
2021/04/02 00:01:52;;;;;;;2.65;2.45;;;;;;;;;;5036264;28;20213;-82
2021/04/02 00:04:19;;;;;;;2.83;2.63;;;;;;;;;;5035877;28;20198;-81
2021/04/02 00:06:45;;;;;;;2.50;2.25;;;;;;;;;;5036093;28;20229;-82
2021/04/02 00:09:13;;;;;;;3.35;2.70;;;;;;;;;;5035826;28;20202;-83
2021/04/02 00:11:41;;;;;;;3.15;2.88;;;;;;;;;;5035733;28;20206;-82
2021/04/02 00:14:09;;;;;;;2.58;2.30;;;;;;;;;;5037233;28;21036;-81
2021/04/02 00:16:36;;;;;;;2.80;2.58;;;;;;;;;;5035363;28;20202;-82
2021/04/02 00:19:04;;;;;;;5.03;2.67;;;;;;;;;;5036593;28;20290;-82
2021/04/02 00:21:31;;;;;;;3.78;2.97;;;;;;;;;;5036535;28;20202;-82
2021/04/02 00:23:58;;;;;;;2.80;2.60;;;;;;;;;;5035615;28;20202;-82
2021/04/02 00:26:27;;;;;;;2.88;2.50;;;;;;;;;;5036196;28;20210;-83
2021/04/02 00:28:55;;;;;;;3.10;2.88;;;;;;;;;;5036781;28;20205;-82
2021/04/02 00:31:23;;;;;;;2.90;2.63;;;;;;;;;;5035976;28;20202;-81
2021/04/02 00:33:50;;;;;;;2.50;2.30;;;;;;;;;;5037146;28;20240;-82
2021/04/02 00:36:17;;;;;;;2.80;2.60;;;;;;;;;;5036445;28;20202;-82
2021/04/02 00:38:44;;;;;;;2.50;2.30;;;;;;;;;;5037047;28;20226;-81
2021/04/02 00:41:15;;;;;;;3.42;3.13;;;;;;;;;;5038878;28;20198;-82
2021/04/02 00:43:44;;;;;;;2.78;2.58;;;;;;;;;;5036777;28;20209;-80
2021/04/02 00:46:12;;;;;;;3.25;3.03;;;;;;;;;;5034396;28;20210;-81
2021/04/02 00:48:42;;;;;;;4.80;2.88;;;;;;;;;;5034148;28;20712;-81
2021/04/02 00:51:12;;;;;;;2.97;2.78;;;;;;;;;;5034522;28;20206;-81
2021/04/02 00:53:42;;;;;;;3.63;3.33;;;;;;;;;;5034007;28;20197;-82
2021/04/02 00:56:12;;;;;;;5.40;4.20;;;;;;;;;;5033270;28;20695;-82
2021/04/02 00:58:39;;;;;;;3.90;3.60;;;;;;;;;;5034033;28;20257;-81
2021/04/02 01:01:09;;;;;;;4.45;3.97;;;;;;;;;;5033639;28;20270;-82
2021/04/02 01:03:36;;;;;;;4.25;3.85;;;;;;;;;;5033870;28;20762;-83
2021/04/02 01:06:08;;;;;;;7.22;4.38;;;;;;;;;;5033378;28;20203;-82
2021/04/02 01:08:36;;;;;;;4.43;4.03;;;;;;;;;;5033371;28;20257;-81
2021/04/02 01:11:07;;;;;;;4.47;4.07;;;;;;;;;;5033306;28;20265;-82
2021/04/02 01:13:37;;;;;;;3.95;3.60;;;;;;;;;;5033482;28;20241;-82
2021/04/02 01:16:13;;;;;;;3.90;3.50;;;;;;;;;;5032966;28;20687;-83
2021/04/02 01:18:49;;;;;;;3.90;3.60;;;;;;;;;;5033151;28;20222;-82
2021/04/02 01:21:27;;;;;;;3.95;3.65;;;;;;;;;;5034244;28;20183;-81
2021/04/02 01:24:42;;;;;;;3.63;3.33;;;;;;;;;;5033875;28;20260;-80
2021/04/02 01:27:23;;;;;;;4.40;3.42;;;;;;;;;;4998067;28;20288;-80
2021/04/02 01:29:54;;;;;;;5.25;4.75;;;;;;;;;;5033458;28;20187;-81
2021/04/02 01:32:26;;;;;;;3.95;3.65;;;;;;;;;;5033368;28;20203;-80
2021/04/02 01:34:56;;;;;;;3.30;3.10;;;;;;;;;;5033141;28;20255;-82
2021/04/02 01:37:28;;;;;;;5.22;4.05;;;;;;;;;;5022394;28;20222;-81
2021/04/02 01:39:58;;;;;;;4.82;4.43;;;;;;;;;;5022922;28;20195;-80
2021/04/02 01:42:26;;;;;;;4.65;3.72;;;;;;;;;;5022648;28;20196;-80
2021/04/02 01:44:55;;;;;;;4.10;3.60;;;;;;;;;;5022166;28;20656;-81
2021/04/02 01:47:24;;;;;;;3.38;3.13;;;;;;;;;;5018173;28;20227;-81
2021/04/02 01:49:53;;;;;;;3.78;3.47;;;;;;;;;;5012536;28;20210;-82
2021/04/02 01:52:23;;;;;;;4.00;3.70;;;;;;;;;;5013109;28;20206;-81
2021/04/02 01:54:51;;;;;;;3.90;3.58;;;;;;;;;;5013661;28;20230;-81
2021/04/02 01:57:18;;;;;;;4.18;3.28;;;;;;;;;;5013446;28;20596;-82
2021/04/02 01:59:46;;;;;;;3.75;3.45;;;;;;;;;;5012926;28;20214;-81
2021/04/02 02:02:14;;;;;;;3.60;3.30;;;;;;;;;;5012755;28;20665;-81
2021/04/02 02:04:42;;;;;;;3.72;3.42;;;;;;;;;;5013267;28;20214;-81
2021/04/02 02:07:09;;;;;;;3.70;3.40;;;;;;;;;;5012560;28;20230;-81
2021/04/02 02:09:39;;;;;;;4.43;3.60;;;;;;;;;;5012292;28;20207;-81
2021/04/02 02:12:10;;;;;;;3.90;3.60;;;;;;;;;;5012119;28;20214;-81
2021/04/02 02:14:41;;;;;;;3.10;2.80;;;;;;;;;;5012513;28;20358;-80
2021/04/02 02:17:11;;;;;;;3.80;3.50;;;;;;;;;;5011970;28;20622;-81
2021/04/02 02:19:41;;;;;;;5.93;3.55;;;;;;;;;;5012901;28;20218;-81
2021/04/02 02:22:10;;;;;;;5.40;3.25;;;;;;;;;;5011965;28;20214;-81
2021/04/02 02:24:38;;;;;;;4.07;3.78;;;;;;;;;;5012489;28;20203;-81
2021/04/02 02:27:07;;;;;;;3.20;3.00;;;;;;;;;;5011882;28;20234;-81
2021/04/02 02:29:34;;;;;;;3.70;3.40;;;;;;;;;;5012901;28;20199;-81
2021/04/02 02:32:02;;;;;;;4.03;3.63;;;;;;;;;;5012690;28;20661;-81
2021/04/02 02:34:29;;;;;;;4.63;4.22;;;;;;;;;;5012417;28;20203;-81
2021/04/02 02:36:57;;;;;;;3.85;3.55;;;;;;;;;;5012653;28;20302;-81
2021/04/02 02:39:25;;;;;;;3.92;3.42;;;;;;;;;;5012852;28;20261;-82
2021/04/02 02:41:51;;;;;;;4.47;3.50;;;;;;;;;;5011999;28;20202;-81
2021/04/02 02:44:18;;;;;;;4.05;3.70;;;;;;;;;;5012190;28;20209;-81
2021/04/02 02:46:45;;;;;;;4.10;3.80;;;;;;;;;;5012642;28;20581;-81
2021/04/02 02:49:16;;;;;;;3.70;3.40;;;;;;;;;;5012036;28;20219;-81
2021/04/02 02:51:45;;;;;;;4.18;3.78;;;;;;;;;;5012369;28;20203;-81
2021/04/02 02:54:18;;;;;;;4.35;3.95;;;;;;;;;;5012359;28;20203;-81
2021/04/02 02:56:47;;;;;;;6.07;3.53;;;;;;;;;;5012221;28;20464;-81
2021/04/02 02:59:17;;;;;;;3.60;3.30;;;;;;;;;;5012929;28;20574;-81
2021/04/02 03:01:44;;;;;;;5.80;4.65;;;;;;;;;;5013138;28;20676;-81
2021/04/02 03:04:11;;;;;;;3.80;3.42;;;;;;;;;;5012267;28;20680;-81
2021/04/02 03:06:40;;;;;;;4.30;3.70;;;;;;;;;;5011884;28;20207;-81
2021/04/02 03:09:08;;;;;;;4.35;3.95;;;;;;;;;;5012961;28;20771;-81
2021/04/02 03:11:36;;;;;;;4.38;3.90;;;;;;;;;;5012571;28;20194;-82
2021/04/02 03:14:04;;;;;;;3.63;3.33;;;;;;;;;;5013413;28;20203;-81
2021/04/02 03:16:32;;;;;;;4.93;3.92;;;;;;;;;;5012104;28;20203;-81
2021/04/02 03:19:00;;;;;;;3.70;3.40;;;;;;;;;;5013028;28;20668;-81
2021/04/02 03:21:26;;;;;;;5.28;4.88;;;;;;;;;;5012777;28;20207;-81
2021/04/02 03:23:54;;;;;;;4.80;3.58;;;;;;;;;;5012925;28;20203;-81
2021/04/02 03:26:22;;;;;;;3.67;3.38;;;;;;;;;;5012319;28;20587;-81
2021/04/02 03:28:50;;;;;;;4.60;3.60;;;;;;;;;;5013313;28;20231;-82
2021/04/02 03:31:18;;;;;;;3.63;3.35;;;;;;;;;;5013839;28;20214;-81
2021/04/02 03:33:49;;;;;;;3.13;2.83;;;;;;;;;;5013232;28;20203;-81
2021/04/02 03:36:17;;;;;;;3.65;3.35;;;;;;;;;;5012933;28;20227;-81
2021/04/02 03:38:46;;;;;;;4.20;3.35;;;;;;;;;;5014270;28;20221;-81
2021/04/02 03:41:18;;;;;;;3.28;3.08;;;;;;;;;;5013506;28;20204;-81
2021/04/02 03:43:47;;;;;;;4.20;3.80;;;;;;;;;;5013180;28;20199;-81
2021/04/02 03:46:17;;;;;;;5.03;4.32;;;;;;;;;;5012954;28;20211;-81
2021/04/02 03:48:44;;;;;;;5.82;3.70;;;;;;;;;;5013267;28;20715;-81
2021/04/02 03:51:15;;;;;;;4.80;3.90;;;;;;;;;;5013482;28;20210;-81
2021/04/02 03:53:44;;;;;;;4.30;3.95;;;;;;;;;;5013400;28;20632;-81
2021/04/02 03:56:17;;;;;;;4.72;3.53;;;;;;;;;;5012580;28;20195;-81
2021/04/02 03:58:46;;;;;;;5.15;3.92;;;;;;;;;;5013347;28;20215;-81
2021/04/02 04:01:17;;;;;;;4.60;4.20;;;;;;;;;;5013816;28;20203;-81
2021/04/02 04:03:48;;;;;;;4.32;4.03;;;;;;;;;;5013824;28;20675;-82
2021/04/02 04:06:17;;;;;;;5.65;5.15;;;;;;;;;;5014377;28;20206;-81
2021/04/02 04:08:45;;;;;;;5.72;4.38;;;;;;;;;;5013353;28;20233;-82
2021/04/02 04:11:13;;;;;;;4.70;4.30;;;;;;;;;;5013301;28;20199;-81
2021/04/02 04:13:42;;;;;;;5.18;4.72;;;;;;;;;;5012793;28;20217;-81
2021/04/02 04:16:09;;;;;;;4.80;4.40;;;;;;;;;;5013089;28;20218;-82
2021/04/02 04:18:37;;;;;;;5.63;5.13;;;;;;;;;;5013535;28;20223;-81
2021/04/02 04:21:06;;;;;;;6.28;4.80;;;;;;;;;;5013684;28;20203;-81
2021/04/02 04:23:34;;;;;;;4.68;4.25;;;;;;;;;;5014219;28;20584;-81
2021/04/02 04:26:01;;;;;;;4.50;4.10;;;;;;;;;;5018032;28;20700;-82
2021/04/02 04:28:29;;;;;;;5.30;4.90;;;;;;;;;;5016833;28;20226;-81
2021/04/02 04:30:58;;;;;;;5.68;5.10;;;;;;;;;;5011641;28;20199;-82
2021/04/02 04:33:27;;;;;;;4.93;4.53;;;;;;;;;;5012207;28;20206;-82
2021/04/02 04:35:54;;;;;;;5.85;4.93;;;;;;;;;;5011238;28;20239;-81
2021/04/02 04:38:22;;;;;;;5.13;4.63;;;;;;;;;;5012137;28;20649;-81
2021/04/02 04:40:50;;;;;;;5.07;4.68;;;;;;;;;;5012317;28;20204;-81
2021/04/02 04:43:18;;;;;;;5.80;4.75;;;;;;;;;;5012850;28;20198;-81
2021/04/02 04:45:45;;;;;;;5.47;4.93;;;;;;;;;;5012720;28;20209;-81
2021/04/02 04:48:12;;;;;;;4.47;4.03;;;;;;;;;;5015483;28;20246;-81
2021/04/02 04:50:39;;;;;;;5.13;4.65;;;;;;;;;;5015929;28;20210;-81
2021/04/02 04:53:12;;;;;;;5.32;4.82;;;;;;;;;;5015630;28;20255;-81
2021/04/02 04:55:40;;;;;;;5.25;4.80;;;;;;;;;;5015211;28;20191;-81
2021/04/02 04:58:11;;;;;;;5.80;4.57;;;;;;;;;;5016172;28;20237;-81
2021/04/02 05:00:39;;;;;;;5.00;4.60;;;;;;;;;;5015717;28;20261;-81
2021/04/02 05:03:06;;;;;;;4.97;4.47;;;;;;;;;;5016281;28;20206;-82
2021/04/02 05:05:37;;;;;;;4.28;3.88;;;;;;;;;;5015949;28;20210;-81
2021/04/02 05:08:08;;;;;;;4.53;4.18;;;;;;;;;;5016212;28;20245;-81
2021/04/02 05:10:35;;;;;;;5.25;4.75;;;;;;;;;;5017567;28;20210;-82
2021/04/02 05:13:02;;;;;;;4.05;3.75;;;;;;;;;;5017300;28;20669;-81
2021/04/02 05:15:30;;;;;;;4.20;3.80;;;;;;;;;;5017327;28;20218;-81
2021/04/02 05:17:57;;;;;;;4.75;4.35;;;;;;;;;;5017082;28;20223;-81
2021/04/02 05:20:33;;;;;;;4.32;3.92;;;;;;;;;;5017510;28;20210;-81
2021/04/02 05:23:00;;;;;;;4.38;4.07;;;;;;;;;;5016794;28;20242;-81
2021/04/02 05:25:27;;;;;;;4.53;4.18;;;;;;;;;;5015750;28;20203;-82
2021/04/02 05:27:54;;;;;;;4.75;4.40;;;;;;;;;;5015890;28;20238;-80
2021/04/02 05:30:22;;;;;;;4.60;4.20;;;;;;;;;;5015950;28;20234;-82
2021/04/02 05:32:49;;;;;;;5.05;4.55;;;;;;;;;;5017179;28;20203;-81
2021/04/02 05:35:16;;;;;;;4.50;4.10;;;;;;;;;;5017066;28;20201;-81
2021/04/02 05:37:42;;;;;;;5.82;5.25;;;;;;;;;;5015955;28;20222;-81
2021/04/02 05:40:10;;;;;;;5.10;4.60;;;;;;;;;;5015554;28;20203;-81
2021/04/02 05:42:43;;;;;;;4.85;4.45;;;;;;;;;;5016467;28;20630;-80
2021/04/02 05:45:14;;;;;;;4.95;4.45;;;;;;;;;;5015932;28;20700;-81
2021/04/02 05:47:43;;;;;;;5.40;4.20;;;;;;;;;;5015334;28;20301;-81
2021/04/02 05:50:11;;;;;;;4.88;4.20;;;;;;;;;;5015461;28;20231;-81
2021/04/02 05:52:39;;;;;;;5.25;4.75;;;;;;;;;;5015717;28;20689;-82
2021/04/02 05:55:07;;;;;;;5.18;4.65;;;;;;;;;;5014745;28;20231;-82
2021/04/02 05:57:34;;;;;;;6.25;5.40;;;;;;;;;;5016077;28;20223;-81
2021/04/02 06:00:03;;;;;;;5.63;5.13;;;;;;;;;;5015669;28;20289;-81
2021/04/02 06:02:30;;;;;;;5.90;5.38;;;;;;;;;;5015001;28;20218;-81
2021/04/02 06:04:57;;;;;;;6.60;5.93;;;;;;;;;;5015659;28;20203;-81
2021/04/02 06:07:24;;;;;;;7.93;7.13;;;;;;;;;;5014749;28;20227;-82
2021/04/02 06:09:50;;;;;;;8.15;7.00;;;;;;;;;;5016040;28;20226;-82
2021/04/02 06:12:17;;;;;;;7.93;7.13;;;;;;;;;;5016131;28;20211;-82
2021/04/02 06:14:44;;;;;;;9.18;8.18;;;;;;;;;;5016146;28;20203;-82
2021/04/02 06:17:12;;;;;;;7.82;6.63;;;;;;;;;;5014984;28;20708;-81
2021/04/02 06:19:39;;;;;;;8.38;7.47;;;;;;;;;;5015294;28;20202;-81
2021/04/02 06:22:06;;;;;;;8.40;7.50;;;;;;;;;;5015246;28;20587;-82
2021/04/02 06:24:41;;;;;;;8.80;7.35;;;;;;;;;;5014865;28;20295;-81
2021/04/02 06:27:10;;;;;;;8.82;6.78;;;;;;;;;;5015201;28;20223;-81
2021/04/02 06:29:39;;;;;;;9.57;7.22;;;;;;;;;;5015394;28;20305;-81
2021/04/02 06:32:08;;;;;;;9.45;7.47;;;;;;;;;;5015022;28;20207;-81
2021/04/02 06:34:45;;;;;;;7.85;7.10;;;;;;;;;;5015459;28;20207;-81
2021/04/02 06:37:12;;;;;;;7.82;7.00;;;;;;;;;;5015032;28;20249;-81
2021/04/02 06:39:39;;;;;;;8.15;7.05;;;;;;;;;;5015422;28;20199;-82
2021/04/02 06:42:09;;;;;;;9.40;7.22;;;;;;;;;;5015805;28;20207;-81
2021/04/02 06:44:35;;;;;;;8.32;7.43;;;;;;;;;;5015691;28;20289;-81
2021/04/02 06:47:02;;;;;;;8.68;7.38;;;;;;;;;;5014547;28;20258;-82
2021/04/02 06:49:29;;;;;;;9.75;7.90;;;;;;;;;;5014247;28;20227;-82
2021/04/02 06:51:57;;;;;;;8.13;7.28;;;;;;;;;;5015429;28;20191;-81
2021/04/02 06:54:27;;;;;;;7.03;6.32;;;;;;;;;;5014975;28;20735;-82
2021/04/02 06:57:01;;;;;;;8.57;7.22;;;;;;;;;;5014818;28;20222;-82
2021/04/02 06:59:28;;;;;;;7.55;6.82;;;;;;;;;;5015338;28;20711;-82
2021/04/02 07:01:55;;;;;;;8.13;7.18;;;;;;;;;;5014728;28;20205;-82
2021/04/02 07:04:24;;;;;;;7.57;6.32;;;;;;;;;;5014674;28;20208;-82
2021/04/02 07:06:53;;;;;;;7.88;6.28;;;;;;;;;;5015202;28;20270;-82
2021/04/02 07:09:23;;;;;;;7.43;6.72;;;;;;;;;;5015026;28;20231;-81
2021/04/02 07:11:55;;;;;;;6.63;6.03;;;;;;;;;;5018137;28;20207;-82
2021/04/02 07:14:23;;;;;;;7.63;6.20;;;;;;;;;;5015241;28;20342;-82
2021/04/02 07:16:51;;;;;;;6.43;5.68;;;;;;;;;;5014888;28;20214;-82
2021/04/02 07:19:18;;;;;;;7.32;6.28;;;;;;;;;;5015903;28;20672;-82
2021/04/02 07:21:45;;;;;;;7.47;6.65;;;;;;;;;;5015041;28;20246;-82
2021/04/02 07:24:12;;;;;;;5.20;4.70;;;;;;;;;;5015788;28;20199;-82
2021/04/02 07:26:40;;;;;;;6.28;5.68;;;;;;;;;;5014791;28;20647;-82
2021/04/02 07:29:07;;;;;;;5.70;5.20;;;;;;;;;;5014264;28;20210;-82
2021/04/02 07:31:35;;;;;;;5.80;4.93;;;;;;;;;;5015044;28;20215;-82
2021/04/02 07:34:02;;;;;;;5.10;4.50;;;;;;;;;;5015549;28;20587;-82
2021/04/02 07:36:30;;;;;;;5.88;5.35;;;;;;;;;;5015376;28;20203;-82
2021/04/02 07:38:56;;;;;;;5.40;4.90;;;;;;;;;;5016487;28;20223;-82
2021/04/02 07:41:24;;;;;;;6.00;5.40;;;;;;;;;;5015439;28;20202;-82
2021/04/02 07:43:55;;;;;;;5.97;5.38;;;;;;;;;;5015031;28;20203;-82
2021/04/02 07:46:25;;;;;;;6.28;5.38;;;;;;;;;;5014431;28;20301;-82
2021/04/02 07:48:56;;;;;;;5.25;4.75;;;;;;;;;;5053558;23;20734;-84
2021/04/02 07:51:23;;;;;;;5.43;4.88;;;;;;;;;;5033125;28;20264;-84
2021/04/02 07:53:49;;;;;;;5.60;4.97;;;;;;;;;;5034623;28;20702;-83
2021/04/02 07:56:18;;;;;;;5.55;4.68;;;;;;;;;;5033505;28;20198;-84
2021/04/02 07:58:51;;;;;;;5.10;4.60;;;;;;;;;;5035064;28;20590;-83
2021/04/02 08:01:21;;;;;;;5.72;5.22;;;;;;;;;;5033915;28;20206;-79
2021/04/02 08:03:49;;;;;;;5.88;5.28;;;;;;;;;;5033260;28;20210;-82
2021/04/02 08:06:32;;;;;;;4.70;4.30;;;;;;;;;;5032852;28;20213;-83
2021/04/02 08:09:00;;;;;;;5.28;4.72;;;;;;;;;;5033101;28;20226;-82
2021/04/02 08:11:30;;;;;;;5.05;4.65;;;;;;;;;;5034294;28;20715;-83
2021/04/02 08:14:00;;;;;;;5.45;4.65;;;;;;;;;;5034102;28;20277;-82
2021/04/02 08:16:50;;;;;;;4.97;4.53;;;;;;;;;;5033858;28;20301;-83
2021/04/02 08:19:24;;;;;;;4.20;3.58;;;;;;;;;;5028150;28;20252;-83
2021/04/02 08:21:54;;;;;;;4.07;3.78;;;;;;;;;;5036786;28;20202;-84
2021/04/02 08:24:24;;;;;;;5.10;4.63;;;;;;;;;;5037530;28;20202;-82
2021/04/02 08:26:52;;;;;;;5.35;4.10;;;;;;;;;;5037981;28;20256;-83
2021/04/02 08:29:22;;;;;;;5.38;4.88;;;;;;;;;;5037392;28;20194;-84
2021/04/02 08:31:52;;;;;;;5.38;4.88;;;;;;;;;;5038044;28;20186;-82
2021/04/02 08:34:22;;;;;;;5.03;4.60;;;;;;;;;;5038764;28;20552;-83
2021/04/02 08:36:52;;;;;;;5.75;5.25;;;;;;;;;;5037681;28;20205;-83
2021/04/02 08:39:23;;;;;;;5.50;5.00;;;;;;;;;;5037505;28;20210;-83
2021/04/02 08:41:50;;;;;;;6.03;5.13;;;;;;;;;;5026090;28;20226;-84
2021/04/02 08:44:17;;;;;;;6.82;5.68;;;;;;;;;;5028659;28;20199;-84
2021/04/02 08:46:47;;;;;;;6.10;5.50;;;;;;;;;;5027177;28;20191;-84
2021/04/02 08:49:15;;;;;;;5.35;4.85;;;;;;;;;;5025634;28;20205;-83
2021/04/02 08:51:47;;;;;;;5.53;5.00;;;;;;;;;;5038034;28;20256;-84
2021/04/02 08:54:19;;;;;;;5.20;4.70;;;;;;;;;;5023244;28;20295;-84
2021/04/02 08:56:47;;;;;;;5.30;4.80;;;;;;;;;;5026843;28;20225;-82
2021/04/02 08:59:14;;;;;;;4.50;4.13;;;;;;;;;;5029591;28;20210;-83
2021/04/02 09:01:44;;;;;;;4.30;3.90;;;;;;;;;;5028517;28;20195;-84
2021/04/02 09:04:13;;;;;;;4.03;3.72;;;;;;;;;;5022005;28;20202;-83
2021/04/02 09:06:41;;;;;;;4.50;4.10;;;;;;;;;;5023351;28;20187;-83
2021/04/02 09:09:16;;;;;;;5.10;4.13;;;;;;;;;;5023149;28;20326;-83
2021/04/02 09:11:45;;;;;;;3.75;3.45;;;;;;;;;;5025059;28;20661;-83
2021/04/02 09:14:12;;;;;;;5.40;3.85;;;;;;;;;;5022551;28;20199;-82
2021/04/02 09:16:42;;;;;;;4.28;3.88;;;;;;;;;;5021431;28;20222;-83
2021/04/02 09:19:11;;;;;;;4.53;4.13;;;;;;;;;;5021372;28;20597;-84
2021/04/02 09:21:39;;;;;;;4.53;4.13;;;;;;;;;;5022788;28;20198;-84
2021/04/02 09:24:07;;;;;;;3.70;3.40;;;;;;;;;;5022048;28;20191;-83
2021/04/02 09:26:38;;;;;;;4.05;3.70;;;;;;;;;;5021367;28;20182;-83
2021/04/02 09:29:05;;;;;;;3.67;3.38;;;;;;;;;;5016488;28;20215;-83
2021/04/02 09:31:34;;;;;;;3.42;3.13;;;;;;;;;;5022065;28;20225;-83
2021/04/02 09:34:04;;;;;;;3.75;3.45;;;;;;;;;;5020949;28;20195;-83
2021/04/02 09:36:34;;;;;;;4.07;3.67;;;;;;;;;;5022779;28;20190;-83
2021/04/02 09:39:11;;;;;;;3.88;3.47;;;;;;;;;;5018328;28;20240;-84
2021/04/02 09:41:41;;;;;;;4.50;3.03;;;;;;;;;;5019651;28;20405;-84
2021/04/02 09:44:10;;;;;;;3.35;3.13;;;;;;;;;;5019287;28;20187;-84
2021/04/02 09:46:39;;;;;;;3.75;3.45;;;;;;;;;;5021205;28;20202;-82
2021/04/02 09:49:09;;;;;;;3.63;3.33;;;;;;;;;;5040192;28;20230;-83
2021/04/02 09:51:40;;;;;;;3.60;3.30;;;;;;;;;;5039754;28;20198;-84
2021/04/02 09:54:08;;;;;;;3.92;3.63;;;;;;;;;;5039564;28;20194;-82
2021/04/02 09:56:35;;;;;;;3.60;3.30;;;;;;;;;;5044253;28;20194;-82
2021/04/02 09:59:02;;;;;;;4.10;3.70;;;;;;;;;;5042777;28;20214;-83
2021/04/02 10:01:30;;;;;;;4.00;3.60;;;;;;;;;;5043012;28;20190;-84
2021/04/02 10:03:57;;;;;;;3.53;3.22;;;;;;;;;;5044309;28;20330;-82
2021/04/02 10:06:24;;;;;;;6.88;4.13;;;;;;;;;;5043275;28;20754;-82
2021/04/02 10:08:52;;;;;;;4.22;3.92;;;;;;;;;;5041373;28;20221;-82
2021/04/02 10:11:19;;;;;;;4.65;4.25;;;;;;;;;;5043572;28;20206;-84
2021/04/02 10:13:46;;;;;;;6.03;4.85;;;;;;;;;;5042843;28;20264;-83
2021/04/02 10:16:15;;;;;;;3.55;3.25;;;;;;;;;;5042993;28;20189;-81
2021/04/02 10:18:42;;;;;;;4.43;4.03;;;;;;;;;;5041283;28;20225;-83
2021/04/02 10:21:09;;;;;;;4.90;4.38;;;;;;;;;;5044020;28;20193;-84
2021/04/02 10:23:36;;;;;;;5.80;4.43;;;;;;;;;;5041743;28;20198;-83
2021/04/02 10:26:04;;;;;;;4.90;4.28;;;;;;;;;;5050923;28;20194;-83
2021/04/02 10:28:31;;;;;;;4.93;4.50;;;;;;;;;;5054508;28;20229;-81
2021/04/02 10:30:58;;;;;;;4.78;4.15;;;;;;;;;;5054295;28;20209;-82
2021/04/02 10:33:25;;;;;;;4.45;3.85;;;;;;;;;;5055167;28;20182;-84
2021/04/02 10:35:52;;;;;;;7.70;4.65;;;;;;;;;;5054528;28;20189;-82
2021/04/02 10:38:19;;;;;;;4.10;3.63;;;;;;;;;;5055607;28;20247;-83
2021/04/02 10:40:47;;;;;;;4.85;4.38;;;;;;;;;;5055890;28;20178;-84
2021/04/02 10:43:15;;;;;;;6.10;5.32;;;;;;;;;;5055768;28;20727;-83
2021/04/02 10:45:57;;;;;;;6.03;5.10;;;;;;;;;;5055124;28;20712;-83
2021/04/02 10:48:24;;;;;;;5.43;4.93;;;;;;;;;;5054399;28;20237;-83
2021/04/02 10:50:54;;;;;;;6.88;5.93;;;;;;;;;;5055562;28;20217;-83
2021/04/02 10:53:22;;;;;;;9.23;6.43;;;;;;;;;;5056161;28;20197;-83
2021/04/02 10:55:49;;;;;;;6.55;5.90;;;;;;;;;;5056177;28;20335;-83
2021/04/02 10:58:17;;;;;;;6.95;5.47;;;;;;;;;;5055804;28;20225;-85
2021/04/02 11:00:44;;;;;;;6.75;5.57;;;;;;;;;;5041097;28;20786;-84
2021/04/02 11:03:12;;;;;;;6.10;5.50;;;;;;;;;;5035855;28;20285;-83
2021/04/02 11:05:39;;;;;;;6.15;5.45;;;;;;;;;;5049131;28;20198;-82
2021/04/02 11:08:07;;;;;;;6.53;5.88;;;;;;;;;;5038272;28;20225;-84
2021/04/02 11:11:38;;;;;;;5.28;4.82;;;;;;;;;;5044526;28;20183;-84
2021/04/02 11:14:06;;;;;;;5.70;5.13;;;;;;;;;;5031086;28;20262;-81
2021/04/02 11:16:36;;;;;;;6.82;4.50;;;;;;;;;;5036598;28;20218;-83
2021/04/02 11:19:03;;;;;;;5.53;5.03;;;;;;;;;;5034484;28;20225;-83
2021/04/02 11:21:31;;;;;;;6.55;5.03;;;;;;;;;;5036145;28;20202;-84
2021/04/02 11:23:59;;;;;;;5.22;4.72;;;;;;;;;;5036484;28;20189;-83
2021/04/02 11:26:26;;;;;;;5.40;4.90;;;;;;;;;;5045313;28;20224;-84
2021/04/02 11:28:53;;;;;;;7.93;5.22;;;;;;;;;;5055764;28;20210;-82
2021/04/02 11:31:22;;;;;;;5.82;4.75;;;;;;;;;;5060349;28;20620;-81
2021/04/02 11:33:49;;;;;;;5.25;4.60;;;;;;;;;;5059653;28;20205;-80
2021/04/02 11:36:16;;;;;;;5.72;5.10;;;;;;;;;;5052786;28;20194;-81
2021/04/02 11:38:43;;;;;;;4.85;4.38;;;;;;;;;;5060319;28;20240;-81
2021/04/02 11:41:11;;;;;;;6.20;5.63;;;;;;;;;;5053812;28;20206;-82
2021/04/02 11:43:38;;;;;;;5.65;5.13;;;;;;;;;;5041783;28;20502;-83
2021/04/02 11:46:05;;;;;;;5.20;4.70;;;;;;;;;;5052671;28;20224;-84
2021/04/02 11:48:33;;;;;;;6.03;5.38;;;;;;;;;;5053276;28;20233;-83
2021/04/02 11:51:00;;;;;;;5.40;4.90;;;;;;;;;;5053357;28;20256;-85
2021/04/02 11:53:27;;;;;;;5.03;4.53;;;;;;;;;;5052147;28;20181;-84
2021/04/02 11:55:54;;;;;;;5.82;5.32;;;;;;;;;;5037593;28;20208;-82
2021/04/02 11:58:21;;;;;;;6.25;4.53;;;;;;;;;;5038663;28;20226;-85
2021/04/02 12:00:48;;;;;;;5.03;4.53;;;;;;;;;;5030993;28;20187;-84
2021/04/02 12:03:14;;;;;;;5.90;4.55;;;;;;;;;;5058909;28;20687;-85
2021/04/02 12:05:42;;;;;;;5.85;5.18;;;;;;;;;;5048670;28;20202;-86
2021/04/02 12:08:09;;;;;;;6.78;6.18;;;;;;;;;;5040716;28;20221;-85
2021/04/02 12:10:36;;;;;;;5.60;4.63;;;;;;;;;;5054850;28;20186;-84
2021/04/02 12:13:03;;;;;;;5.97;5.47;;;;;;;;;;5048792;28;20202;-84
2021/04/02 12:15:30;;;;;;;6.28;4.70;;;;;;;;;;5043883;28;20202;-82
2021/04/02 12:17:57;;;;;;;6.05;5.43;;;;;;;;;;5044460;28;20226;-83
2021/04/02 12:20:24;;;;;;;6.40;5.80;;;;;;;;;;5043036;28;20198;-84
2021/04/02 12:22:52;;;;;;;7.03;6.32;;;;;;;;;;5047086;28;20205;-84
2021/04/02 12:25:19;;;;;;;8.00;6.43;;;;;;;;;;5050112;28;20205;-81
2021/04/02 12:27:46;;;;;;;6.88;5.78;;;;;;;;;;5049011;28;20218;-84
2021/04/02 12:30:15;;;;;;;7.38;6.60;;;;;;;;;;5044165;28;20198;-85
2021/04/02 12:32:43;;;;;;;7.15;6.47;;;;;;;;;;5044439;28;20222;-83
2021/04/02 12:35:11;;;;;;;7.90;5.80;;;;;;;;;;5046206;28;20194;-85
2021/04/02 12:37:39;;;;;;;7.03;6.32;;;;;;;;;;5044270;28;20238;-82
2021/04/02 12:40:13;;;;;;;7.05;6.05;;;;;;;;;;5044025;28;20247;-84
2021/04/02 12:42:40;;;;;;;6.57;5.55;;;;;;;;;;5041969;28;20201;-84
2021/04/02 12:45:10;;;;;;;8.23;6.85;;;;;;;;;;5045888;28;20202;-84
2021/04/02 12:47:37;;;;;;;7.05;5.75;;;;;;;;;;5040205;28;20233;-83
2021/04/02 12:50:08;;;;;;;6.97;5.95;;;;;;;;;;5035462;28;20202;-82
2021/04/02 12:52:35;;;;;;;6.07;5.07;;;;;;;;;;5035792;28;20676;-82
2021/04/02 12:55:04;;;;;;;5.80;5.18;;;;;;;;;;5035481;28;20210;-82
2021/04/02 12:57:32;;;;;;;7.63;4.75;;;;;;;;;;5035473;28;20591;-84
2021/04/02 13:00:00;;;;;;;6.30;4.53;;;;;;;;;;5031242;28;20200;-83
2021/04/02 13:02:27;;;;;;;7.88;4.72;;;;;;;;;;5027252;28;20199;-83
2021/04/02 13:04:53;;;;;;;6.28;4.75;;;;;;;;;;5026901;28;20199;-81
2021/04/02 13:07:20;;;;;;;6.13;4.25;;;;;;;;;;5028899;28;20214;-83
2021/04/02 13:09:47;;;;;;;4.88;4.35;;;;;;;;;;5026163;28;20199;-83
2021/04/02 13:12:14;;;;;;;5.22;4.20;;;;;;;;;;5029631;28;20205;-81
2021/04/02 13:14:42;;;;;;;5.82;4.75;;;;;;;;;;5030378;28;20197;-83
2021/04/02 13:17:09;;;;;;;6.75;4.60;;;;;;;;;;5031064;28;20219;-83
2021/04/02 13:19:36;;;;;;;4.60;4.10;;;;;;;;;;5031344;28;20190;-83
2021/04/02 13:22:04;;;;;;;9.10;5.72;;;;;;;;;;5035735;28;20195;-82
2021/04/02 13:24:31;;;;;;;4.85;4.03;;;;;;;;;;5034593;28;20194;-82
2021/04/02 13:26:58;;;;;;;5.10;3.45;;;;;;;;;;5031831;28;20222;-82
2021/04/02 13:29:25;;;;;;;3.70;3.33;;;;;;;;;;5034746;28;20209;-83
2021/04/02 13:31:53;;;;;;;4.75;3.60;;;;;;;;;;5026490;28;20204;-83
2021/04/02 13:34:20;;;;;;;3.97;3.20;;;;;;;;;;5030022;28;20194;-82
2021/04/02 13:36:47;;;;;;;4.03;3.63;;;;;;;;;;5026997;28;20641;-82
2021/04/02 13:39:14;;;;;;;4.97;3.17;;;;;;;;;;5030174;28;20196;-82
2021/04/02 13:41:40;;;;;;;3.90;3.25;;;;;;;;;;5023660;28;20662;-82
2021/04/02 13:44:08;;;;;;;6.30;3.15;;;;;;;;;;5025581;28;20559;-83
2021/04/02 13:46:35;;;;;;;3.83;3.00;;;;;;;;;;5023923;28;20195;-82
2021/04/02 13:49:03;;;;;;;3.05;2.60;;;;;;;;;;5067751;22;20813;-84
2021/04/02 13:51:37;;;;;;;4.40;3.63;;;;;;;;;;5052177;28;20194;-84
2021/04/02 13:54:06;;;;;;;2.97;2.67;;;;;;;;;;5052102;28;20225;-84
2021/04/02 13:56:34;;;;;;;4.10;3.33;;;;;;;;;;5052077;28;20193;-86
2021/04/02 13:59:02;;;;;;;3.83;3.35;;;;;;;;;;5048999;28;20209;-85
2021/04/02 14:01:33;;;;;;;7.22;3.33;;;;;;;;;;5041885;28;20744;-84
2021/04/02 14:04:03;;;;;;;8.07;3.35;;;;;;;;;;5040155;28;20208;-85
2021/04/02 14:06:29;;;;;;;5.43;3.85;;;;;;;;;;5041879;28;20193;-85
2021/04/02 14:08:56;;;;;;;5.75;3.90;;;;;;;;;;5040917;28;20237;-86
2021/04/02 14:11:25;;;;;;;5.72;3.25;;;;;;;;;;5042867;28;20189;-83
2021/04/02 14:13:53;;;;;;;3.95;3.22;;;;;;;;;;5042039;28;20198;-83
2021/04/02 14:16:20;;;;;;;7.72;3.47;;;;;;;;;;5040149;28;20555;-84
2021/04/02 14:18:47;;;;;;;4.28;2.80;;;;;;;;;;5041780;28;20217;-85
2021/04/02 14:21:14;;;;;;;4.70;3.30;;;;;;;;;;5035006;28;20214;-85
2021/04/02 14:23:41;;;;;;;5.68;3.45;;;;;;;;;;5041275;28;20224;-83
2021/04/02 14:26:09;;;;;;;4.18;3.05;;;;;;;;;;5041275;28;20190;-84
2021/04/02 14:28:37;;;;;;;4.80;3.55;;;;;;;;;;5042168;28;20267;-85
2021/04/02 14:31:05;;;;;;;4.28;3.88;;;;;;;;;;5040448;28;20194;-85
2021/04/02 14:33:32;;;;;;;4.45;3.58;;;;;;;;;;5040279;28;20197;-84
2021/04/02 14:35:59;;;;;;;4.80;3.45;;;;;;;;;;5048992;28;20623;-83
2021/04/02 14:38:29;;;;;;;5.28;3.50;;;;;;;;;;5052282;28;20205;-85
2021/04/02 14:40:56;;;;;;;9.35;3.80;;;;;;;;;;5052433;28;20182;-84
2021/04/02 14:43:25;;;;;;;4.32;3.40;;;;;;;;;;5052360;28;20213;-83
2021/04/02 14:45:53;;;;;;;7.32;3.22;;;;;;;;;;5047131;28;20194;-83
2021/04/02 14:48:20;;;;;;;4.18;3.13;;;;;;;;;;5041915;28;20197;-83
2021/04/02 14:50:47;;;;;;;3.33;3.05;;;;;;;;;;5040762;28;20193;-84
2021/04/02 14:53:16;;;;;;;6.78;3.65;;;;;;;;;;5048529;28;20217;-86